sensor_id;sensor_type;location;lat;lon;timestamp;P1;durP1;ratioP1;P2;durP2;ratioP2
18592;SDS011;9426;54.118;17.948;2022-08-21T00:01:47;11.77;;;9.30;;
18592;SDS011;9426;54.118;17.948;2022-08-21T00:07:11;14.57;;;10.37;;
18592;SDS011;9426;54.118;17.948;2022-08-21T00:12:34;12.50;;;9.53;;
18592;SDS011;9426;54.118;17.948;2022-08-21T00:17:59;11.90;;;9.00;;
18592;SDS011;9426;54.118;17.948;2022-08-21T00:23:23;12.27;;;9.90;;
18592;SDS011;9426;54.118;17.948;2022-08-21T00:28:46;14.07;;;10.33;;
18592;SDS011;9426;54.118;17.948;2022-08-21T00:34:12;14.00;;;10.00;;
18592;SDS011;9426;54.118;17.948;2022-08-21T00:39:35;12.07;;;10.07;;
18592;SDS011;9426;54.118;17.948;2022-08-21T00:45:00;11.87;;;9.70;;
18592;SDS011;9426;54.118;17.948;2022-08-21T00:50:26;14.33;;;11.60;;
18592;SDS011;9426;54.118;17.948;2022-08-21T00:55:54;21.73;;;13.47;;
18592;SDS011;9426;54.118;17.948;2022-08-21T01:01:19;12.97;;;9.80;;
18592;SDS011;9426;54.118;17.948;2022-08-21T01:06:44;16.23;;;11.40;;
18592;SDS011;9426;54.118;17.948;2022-08-21T01:12:08;16.03;;;11.90;;
18592;SDS011;9426;54.118;17.948;2022-08-21T01:17:33;18.97;;;14.83;;
18592;SDS011;9426;54.118;17.948;2022-08-21T01:22:59;16.43;;;12.93;;
18592;SDS011;9426;54.118;17.948;2022-08-21T01:28:22;23.93;;;15.53;;
18592;SDS011;9426;54.118;17.948;2022-08-21T01:33:46;34.07;;;20.20;;
18592;SDS011;9426;54.118;17.948;2022-08-21T01:39:11;26.73;;;18.37;;
18592;SDS011;9426;54.118;17.948;2022-08-21T01:44:35;27.20;;;18.47;;
18592;SDS011;9426;54.118;17.948;2022-08-21T01:49:59;26.30;;;18.27;;
18592;SDS011;9426;54.118;17.948;2022-08-21T01:55:24;43.37;;;25.80;;
18592;SDS011;9426;54.118;17.948;2022-08-21T02:00:48;29.20;;;20.03;;
18592;SDS011;9426;54.118;17.948;2022-08-21T02:06:14;29.93;;;20.80;;
18592;SDS011;9426;54.118;17.948;2022-08-21T02:11:40;36.47;;;23.53;;
18592;SDS011;9426;54.118;17.948;2022-08-21T02:17:04;38.30;;;23.47;;
18592;SDS011;9426;54.118;17.948;2022-08-21T02:22:28;29.93;;;19.30;;
18592;SDS011;9426;54.118;17.948;2022-08-21T02:27:53;26.23;;;18.20;;
18592;SDS011;9426;54.118;17.948;2022-08-21T02:33:17;32.77;;;20.67;;
18592;SDS011;9426;54.118;17.948;2022-08-21T02:38:42;25.53;;;18.23;;
18592;SDS011;9426;54.118;17.948;2022-08-21T02:44:08;37.40;;;22.40;;
18592;SDS011;9426;54.118;17.948;2022-08-21T02:49:31;34.70;;;21.50;;
18592;SDS011;9426;54.118;17.948;2022-08-21T02:54:55;30.73;;;20.60;;
18592;SDS011;9426;54.118;17.948;2022-08-21T03:00:20;22.93;;;17.73;;
18592;SDS011;9426;54.118;17.948;2022-08-21T03:05:45;24.30;;;16.37;;
18592;SDS011;9426;54.118;17.948;2022-08-21T03:11:08;26.23;;;17.07;;
18592;SDS011;9426;54.118;17.948;2022-08-21T03:16:33;17.70;;;13.00;;
18592;SDS011;9426;54.118;17.948;2022-08-21T03:21:57;13.73;;;11.20;;
18592;SDS011;9426;54.118;17.948;2022-08-21T03:27:20;18.60;;;13.30;;
18592;SDS011;9426;54.118;17.948;2022-08-21T03:32:45;17.87;;;13.33;;
18592;SDS011;9426;54.118;17.948;2022-08-21T03:38:09;16.20;;;12.73;;
18592;SDS011;9426;54.118;17.948;2022-08-21T03:43:33;15.77;;;11.67;;
18592;SDS011;9426;54.118;17.948;2022-08-21T03:48:58;14.30;;;10.77;;
18592;SDS011;9426;54.118;17.948;2022-08-21T03:54:22;17.43;;;12.87;;
18592;SDS011;9426;54.118;17.948;2022-08-21T03:59:46;14.50;;;10.60;;
18592;SDS011;9426;54.118;17.948;2022-08-21T04:05:11;15.77;;;10.60;;
18592;SDS011;9426;54.118;17.948;2022-08-21T04:10:36;16.60;;;11.50;;
18592;SDS011;9426;54.118;17.948;2022-08-21T04:16:00;14.97;;;10.07;;
18592;SDS011;9426;54.118;17.948;2022-08-21T04:21:25;12.07;;;9.13;;
18592;SDS011;9426;54.118;17.948;2022-08-21T04:26:49;13.63;;;9.37;;
18592;SDS011;9426;54.118;17.948;2022-08-21T04:32:12;13.23;;;9.40;;
18592;SDS011;9426;54.118;17.948;2022-08-21T04:37:37;13.77;;;9.23;;
18592;SDS011;9426;54.118;17.948;2022-08-21T04:43:05;11.70;;;9.30;;
18592;SDS011;9426;54.118;17.948;2022-08-21T04:48:30;14.80;;;10.60;;
18592;SDS011;9426;54.118;17.948;2022-08-21T04:53:56;12.83;;;9.73;;
18592;SDS011;9426;54.118;17.948;2022-08-21T04:59:24;14.73;;;10.37;;
18592;SDS011;9426;54.118;17.948;2022-08-21T05:04:51;10.00;;;8.43;;
18592;SDS011;9426;54.118;17.948;2022-08-21T05:10:18;10.67;;;8.67;;
18592;SDS011;9426;54.118;17.948;2022-08-21T05:15:42;13.03;;;8.93;;
18592;SDS011;9426;54.118;17.948;2022-08-21T05:21:05;13.93;;;8.53;;
18592;SDS011;9426;54.118;17.948;2022-08-21T05:26:30;11.23;;;7.60;;
18592;SDS011;9426;54.118;17.948;2022-08-21T05:31:54;9.47;;;7.17;;
18592;SDS011;9426;54.118;17.948;2022-08-21T05:37:18;11.73;;;7.03;;
18592;SDS011;9426;54.118;17.948;2022-08-21T05:42:42;11.00;;;7.33;;
18592;SDS011;9426;54.118;17.948;2022-08-21T05:48:06;9.57;;;6.63;;
18592;SDS011;9426;54.118;17.948;2022-08-21T05:53:30;7.80;;;6.37;;
18592;SDS011;9426;54.118;17.948;2022-08-21T05:58:55;7.07;;;6.10;;
18592;SDS011;9426;54.118;17.948;2022-08-21T06:04:18;7.13;;;5.57;;
18592;SDS011;9426;54.118;17.948;2022-08-21T06:09:42;6.07;;;5.10;;
18592;SDS011;9426;54.118;17.948;2022-08-21T06:15:07;9.00;;;5.40;;
18592;SDS011;9426;54.118;17.948;2022-08-21T06:20:31;5.63;;;4.97;;
18592;SDS011;9426;54.118;17.948;2022-08-21T06:25:55;7.07;;;4.80;;
18592;SDS011;9426;54.118;17.948;2022-08-21T06:31:21;5.37;;;4.07;;
18592;SDS011;9426;54.118;17.948;2022-08-21T06:36:46;4.80;;;4.30;;
18592;SDS011;9426;54.118;17.948;2022-08-21T06:42:12;5.17;;;3.90;;
18592;SDS011;9426;54.118;17.948;2022-08-21T06:47:39;5.33;;;3.80;;
18592;SDS011;9426;54.118;17.948;2022-08-21T06:53:04;8.43;;;4.43;;
18592;SDS011;9426;54.118;17.948;2022-08-21T06:58:28;5.20;;;4.27;;
18592;SDS011;9426;54.118;17.948;2022-08-21T07:03:53;5.07;;;3.70;;
18592;SDS011;9426;54.118;17.948;2022-08-21T07:09:16;8.03;;;4.00;;
18592;SDS011;9426;54.118;17.948;2022-08-21T07:14:42;6.10;;;3.50;;
18592;SDS011;9426;54.118;17.948;2022-08-21T07:20:08;6.23;;;3.70;;
18592;SDS011;9426;54.118;17.948;2022-08-21T07:25:32;5.70;;;3.70;;
18592;SDS011;9426;54.118;17.948;2022-08-21T07:30:56;4.50;;;3.67;;
18592;SDS011;9426;54.118;17.948;2022-08-21T07:36:21;5.33;;;3.97;;
18592;SDS011;9426;54.118;17.948;2022-08-21T07:41:45;3.63;;;3.33;;
18592;SDS011;9426;54.118;17.948;2022-08-21T07:47:08;4.53;;;3.50;;
18592;SDS011;9426;54.118;17.948;2022-08-21T07:52:33;4.63;;;3.47;;
18592;SDS011;9426;54.118;17.948;2022-08-21T07:57:58;6.23;;;4.47;;
18592;SDS011;9426;54.118;17.948;2022-08-21T08:03:21;5.73;;;4.37;;
18592;SDS011;9426;54.118;17.948;2022-08-21T08:08:46;4.67;;;3.83;;
18592;SDS011;9426;54.118;17.948;2022-08-21T08:14:09;4.57;;;3.80;;
18592;SDS011;9426;54.118;17.948;2022-08-21T08:19:33;3.67;;;3.27;;
18592;SDS011;9426;54.118;17.948;2022-08-21T08:24:58;4.87;;;3.77;;
18592;SDS011;9426;54.118;17.948;2022-08-21T08:30:22;5.17;;;3.70;;
18592;SDS011;9426;54.118;17.948;2022-08-21T08:35:48;6.37;;;4.53;;
18592;SDS011;9426;54.118;17.948;2022-08-21T08:41:15;5.13;;;3.87;;
18592;SDS011;9426;54.118;17.948;2022-08-21T08:46:41;5.03;;;3.97;;
18592;SDS011;9426;54.118;17.948;2022-08-21T08:52:07;6.03;;;4.13;;
18592;SDS011;9426;54.118;17.948;2022-08-21T08:57:47;7.13;;;4.90;;
18592;SDS011;9426;54.118;17.948;2022-08-21T09:03:12;6.90;;;4.33;;
18592;SDS011;9426;54.118;17.948;2022-08-21T09:08:42;7.10;;;4.50;;
18592;SDS011;9426;54.118;17.948;2022-08-21T09:14:21;7.93;;;4.43;;
18592;SDS011;9426;54.118;17.948;2022-08-21T09:19:53;4.13;;;3.50;;
18592;SDS011;9426;54.118;17.948;2022-08-21T09:25:26;3.53;;;2.90;;
18592;SDS011;9426;54.118;17.948;2022-08-21T09:30:51;3.90;;;2.90;;
18592;SDS011;9426;54.118;17.948;2022-08-21T09:36:23;5.37;;;3.50;;
18592;SDS011;9426;54.118;17.948;2022-08-21T09:41:55;3.00;;;2.70;;
18592;SDS011;9426;54.118;17.948;2022-08-21T09:47:21;3.90;;;2.90;;
18592;SDS011;9426;54.118;17.948;2022-08-21T09:52:49;7.40;;;3.10;;
18592;SDS011;9426;54.118;17.948;2022-08-21T09:58:15;4.30;;;2.70;;
18592;SDS011;9426;54.118;17.948;2022-08-21T10:03:41;5.80;;;2.80;;
18592;SDS011;9426;54.118;17.948;2022-08-21T10:09:05;3.27;;;2.40;;
18592;SDS011;9426;54.118;17.948;2022-08-21T10:14:37;2.67;;;2.23;;
18592;SDS011;9426;54.118;17.948;2022-08-21T10:20:09;5.37;;;2.87;;
18592;SDS011;9426;54.118;17.948;2022-08-21T10:25:38;3.80;;;2.40;;
18592;SDS011;9426;54.118;17.948;2022-08-21T10:31:11;7.80;;;3.23;;
18592;SDS011;9426;54.118;17.948;2022-08-21T10:36:43;5.83;;;3.20;;
18592;SDS011;9426;54.118;17.948;2022-08-21T10:42:18;7.90;;;3.57;;
18592;SDS011;9426;54.118;17.948;2022-08-21T10:47:49;3.03;;;2.37;;
18592;SDS011;9426;54.118;17.948;2022-08-21T10:59:07;5.30;;;2.47;;
18592;SDS011;9426;54.118;17.948;2022-08-21T11:04:44;4.73;;;2.53;;
18592;SDS011;9426;54.118;17.948;2022-08-21T11:10:18;3.90;;;2.77;;
18592;SDS011;9426;54.118;17.948;2022-08-21T11:15:48;6.97;;;3.20;;
18592;SDS011;9426;54.118;17.948;2022-08-21T11:27:03;4.43;;;2.47;;
18592;SDS011;9426;54.118;17.948;2022-08-21T11:38:26;4.43;;;3.03;;
18592;SDS011;9426;54.118;17.948;2022-08-21T11:43:58;4.10;;;2.53;;
18592;SDS011;9426;54.118;17.948;2022-08-21T11:49:33;5.83;;;2.80;;
18592;SDS011;9426;54.118;17.948;2022-08-21T11:55:12;4.53;;;3.13;;
18592;SDS011;9426;54.118;17.948;2022-08-21T12:00:43;8.60;;;3.70;;
18592;SDS011;9426;54.118;17.948;2022-08-21T12:06:10;4.93;;;2.90;;
18592;SDS011;9426;54.118;17.948;2022-08-21T12:11:45;3.87;;;2.80;;
18592;SDS011;9426;54.118;17.948;2022-08-21T12:17:18;3.77;;;3.13;;
18592;SDS011;9426;54.118;17.948;2022-08-21T12:22:47;2.57;;;2.10;;
18592;SDS011;9426;54.118;17.948;2022-08-21T12:28:15;3.63;;;2.87;;
18592;SDS011;9426;54.118;17.948;2022-08-21T12:33:49;4.03;;;2.30;;
18592;SDS011;9426;54.118;17.948;2022-08-21T12:39:17;4.23;;;2.50;;
18592;SDS011;9426;54.118;17.948;2022-08-21T12:44:47;4.13;;;2.27;;
18592;SDS011;9426;54.118;17.948;2022-08-21T12:50:19;4.03;;;2.40;;
18592;SDS011;9426;54.118;17.948;2022-08-21T12:55:46;3.43;;;2.20;;
18592;SDS011;9426;54.118;17.948;2022-08-21T13:01:15;3.23;;;2.00;;
18592;SDS011;9426;54.118;17.948;2022-08-21T13:06:47;2.73;;;1.73;;
18592;SDS011;9426;54.118;17.948;2022-08-21T13:12:13;2.90;;;2.23;;
18592;SDS011;9426;54.118;17.948;2022-08-21T13:17:40;4.17;;;2.03;;
18592;SDS011;9426;54.118;17.948;2022-08-21T13:23:19;4.47;;;2.10;;
18592;SDS011;9426;54.118;17.948;2022-08-21T13:28:46;2.73;;;1.87;;
18592;SDS011;9426;54.118;17.948;2022-08-21T13:34:10;7.27;;;1.90;;
18592;SDS011;9426;54.118;17.948;2022-08-21T13:39:35;3.30;;;1.70;;
18592;SDS011;9426;54.118;17.948;2022-08-21T13:45:00;4.53;;;1.87;;
18592;SDS011;9426;54.118;17.948;2022-08-21T13:50:24;4.40;;;1.90;;
18592;SDS011;9426;54.118;17.948;2022-08-21T13:55:50;4.80;;;1.90;;
18592;SDS011;9426;54.118;17.948;2022-08-21T14:01:19;4.57;;;1.53;;
18592;SDS011;9426;54.118;17.948;2022-08-21T14:06:45;4.30;;;1.73;;
18592;SDS011;9426;54.118;17.948;2022-08-21T14:12:13;5.23;;;1.70;;
18592;SDS011;9426;54.118;17.948;2022-08-21T14:17:39;4.93;;;1.67;;
18592;SDS011;9426;54.118;17.948;2022-08-21T14:23:04;3.93;;;1.70;;
18592;SDS011;9426;54.118;17.948;2022-08-21T14:28:31;4.53;;;1.80;;
18592;SDS011;9426;54.118;17.948;2022-08-21T14:33:56;3.73;;;1.90;;
18592;SDS011;9426;54.118;17.948;2022-08-21T14:39:19;3.47;;;1.40;;
18592;SDS011;9426;54.118;17.948;2022-08-21T14:44:45;3.13;;;1.70;;
18592;SDS011;9426;54.118;17.948;2022-08-21T14:50:09;5.93;;;1.90;;
18592;SDS011;9426;54.118;17.948;2022-08-21T14:55:33;6.77;;;1.97;;
18592;SDS011;9426;54.118;17.948;2022-08-21T15:01:18;6.43;;;2.20;;
18592;SDS011;9426;54.118;17.948;2022-08-21T15:06:43;7.60;;;1.90;;
18592;SDS011;9426;54.118;17.948;2022-08-21T15:12:06;8.13;;;2.10;;
18592;SDS011;9426;54.118;17.948;2022-08-21T15:17:32;3.43;;;1.63;;
18592;SDS011;9426;54.118;17.948;2022-08-21T15:22:56;5.47;;;2.13;;
18592;SDS011;9426;54.118;17.948;2022-08-21T15:28:19;3.10;;;1.77;;
18592;SDS011;9426;54.118;17.948;2022-08-21T15:33:45;3.67;;;1.87;;
18592;SDS011;9426;54.118;17.948;2022-08-21T15:39:08;4.90;;;1.73;;
18592;SDS011;9426;54.118;17.948;2022-08-21T15:44:32;5.43;;;1.73;;
18592;SDS011;9426;54.118;17.948;2022-08-21T15:49:57;5.10;;;2.10;;
18592;SDS011;9426;54.118;17.948;2022-08-21T15:55:20;4.80;;;2.10;;
18592;SDS011;9426;54.118;17.948;2022-08-21T16:00:44;3.07;;;1.83;;
18592;SDS011;9426;54.118;17.948;2022-08-21T16:06:09;3.00;;;1.63;;
18592;SDS011;9426;54.118;17.948;2022-08-21T16:11:33;5.27;;;1.80;;
18592;SDS011;9426;54.118;17.948;2022-08-21T16:16:56;4.03;;;2.00;;
18592;SDS011;9426;54.118;17.948;2022-08-21T16:22:21;3.77;;;2.10;;
18592;SDS011;9426;54.118;17.948;2022-08-21T16:27:46;3.37;;;1.70;;
18592;SDS011;9426;54.118;17.948;2022-08-21T16:33:14;5.90;;;2.13;;
18592;SDS011;9426;54.118;17.948;2022-08-21T16:38:46;3.83;;;1.67;;
18592;SDS011;9426;54.118;17.948;2022-08-21T16:44:10;5.73;;;2.33;;
18592;SDS011;9426;54.118;17.948;2022-08-21T16:49:34;5.30;;;2.17;;
18592;SDS011;9426;54.118;17.948;2022-08-21T16:54:59;4.53;;;2.10;;
18592;SDS011;9426;54.118;17.948;2022-08-21T17:00:22;4.70;;;1.90;;
18592;SDS011;9426;54.118;17.948;2022-08-21T17:05:46;4.23;;;1.73;;
18592;SDS011;9426;54.118;17.948;2022-08-21T17:11:13;3.70;;;1.70;;
18592;SDS011;9426;54.118;17.948;2022-08-21T17:16:43;3.90;;;2.07;;
18592;SDS011;9426;54.118;17.948;2022-08-21T17:22:09;7.07;;;1.90;;
18592;SDS011;9426;54.118;17.948;2022-08-21T17:27:34;7.33;;;1.97;;
18592;SDS011;9426;54.118;17.948;2022-08-21T17:32:57;4.17;;;1.87;;
18592;SDS011;9426;54.118;17.948;2022-08-21T17:38:22;5.93;;;2.30;;
18592;SDS011;9426;54.118;17.948;2022-08-21T17:43:47;4.37;;;1.70;;
18592;SDS011;9426;54.118;17.948;2022-08-21T17:49:11;3.67;;;1.77;;
18592;SDS011;9426;54.118;17.948;2022-08-21T17:54:36;5.07;;;2.07;;
18592;SDS011;9426;54.118;17.948;2022-08-21T18:00:03;3.70;;;1.70;;
18592;SDS011;9426;54.118;17.948;2022-08-21T18:05:31;4.87;;;1.90;;
18592;SDS011;9426;54.118;17.948;2022-08-21T18:10:54;4.77;;;2.30;;
18592;SDS011;9426;54.118;17.948;2022-08-21T18:16:21;7.17;;;2.53;;
18592;SDS011;9426;54.118;17.948;2022-08-21T18:21:44;7.83;;;2.50;;
18592;SDS011;9426;54.118;17.948;2022-08-21T18:27:08;5.43;;;2.27;;
18592;SDS011;9426;54.118;17.948;2022-08-21T18:32:35;4.73;;;2.60;;
18592;SDS011;9426;54.118;17.948;2022-08-21T18:37:58;2.37;;;1.90;;
18592;SDS011;9426;54.118;17.948;2022-08-21T18:43:21;5.00;;;2.10;;
18592;SDS011;9426;54.118;17.948;2022-08-21T18:48:46;4.33;;;2.10;;
18592;SDS011;9426;54.118;17.948;2022-08-21T18:54:10;4.73;;;2.40;;
18592;SDS011;9426;54.118;17.948;2022-08-21T18:59:34;8.27;;;2.63;;
18592;SDS011;9426;54.118;17.948;2022-08-21T19:04:59;4.67;;;2.40;;
18592;SDS011;9426;54.118;17.948;2022-08-21T19:10:23;6.03;;;2.53;;
18592;SDS011;9426;54.118;17.948;2022-08-21T19:15:49;8.23;;;2.77;;
18592;SDS011;9426;54.118;17.948;2022-08-21T19:21:15;4.43;;;2.40;;
18592;SDS011;9426;54.118;17.948;2022-08-21T19:26:39;4.83;;;2.43;;
18592;SDS011;9426;54.118;17.948;2022-08-21T19:32:03;5.37;;;2.40;;
18592;SDS011;9426;54.118;17.948;2022-08-21T19:37:29;5.40;;;2.57;;
18592;SDS011;9426;54.118;17.948;2022-08-21T19:42:53;5.17;;;2.27;;
18592;SDS011;9426;54.118;17.948;2022-08-21T19:48:17;4.43;;;2.30;;
18592;SDS011;9426;54.118;17.948;2022-08-21T19:53:42;5.07;;;2.37;;
18592;SDS011;9426;54.118;17.948;2022-08-21T19:59:05;4.37;;;2.33;;
18592;SDS011;9426;54.118;17.948;2022-08-21T20:04:29;4.17;;;2.40;;
18592;SDS011;9426;54.118;17.948;2022-08-21T20:09:54;3.13;;;2.27;;
18592;SDS011;9426;54.118;17.948;2022-08-21T20:15:19;4.80;;;2.63;;
18592;SDS011;9426;54.118;17.948;2022-08-21T20:20:44;5.20;;;2.50;;
18592;SDS011;9426;54.118;17.948;2022-08-21T20:26:09;6.07;;;2.60;;
18592;SDS011;9426;54.118;17.948;2022-08-21T20:31:33;4.27;;;2.30;;
18592;SDS011;9426;54.118;17.948;2022-08-21T20:36:57;4.73;;;2.10;;
18592;SDS011;9426;54.118;17.948;2022-08-21T20:42:22;3.77;;;2.20;;
18592;SDS011;9426;54.118;17.948;2022-08-21T20:47:46;3.63;;;2.20;;
18592;SDS011;9426;54.118;17.948;2022-08-21T20:53:11;4.43;;;2.50;;
18592;SDS011;9426;54.118;17.948;2022-08-21T20:58:39;4.23;;;3.00;;
18592;SDS011;9426;54.118;17.948;2022-08-21T21:04:19;3.53;;;2.80;;
18592;SDS011;9426;54.118;17.948;2022-08-21T21:09:51;6.43;;;3.00;;
18592;SDS011;9426;54.118;17.948;2022-08-21T21:15:19;4.57;;;2.80;;
18592;SDS011;9426;54.118;17.948;2022-08-21T21:20:50;3.17;;;2.60;;
18592;SDS011;9426;54.118;17.948;2022-08-21T21:26:19;4.63;;;2.70;;
18592;SDS011;9426;54.118;17.948;2022-08-21T21:31:51;3.63;;;2.73;;
18592;SDS011;9426;54.118;17.948;2022-08-21T21:37:20;6.43;;;2.77;;
18592;SDS011;9426;54.118;17.948;2022-08-21T21:42:47;6.83;;;3.20;;
18592;SDS011;9426;54.118;17.948;2022-08-21T21:48:21;5.00;;;2.63;;
18592;SDS011;9426;54.118;17.948;2022-08-21T21:53:53;2.90;;;2.53;;
18592;SDS011;9426;54.118;17.948;2022-08-21T21:59:28;3.80;;;2.73;;
18592;SDS011;9426;54.118;17.948;2022-08-21T22:05:15;3.23;;;2.83;;
18592;SDS011;9426;54.118;17.948;2022-08-21T22:10:50;4.33;;;3.20;;
18592;SDS011;9426;54.118;17.948;2022-08-21T22:16:22;3.60;;;2.70;;
18592;SDS011;9426;54.118;17.948;2022-08-21T22:21:48;3.90;;;3.03;;
18592;SDS011;9426;54.118;17.948;2022-08-21T22:27:17;3.23;;;2.50;;
18592;SDS011;9426;54.118;17.948;2022-08-21T22:32:43;3.93;;;2.70;;
18592;SDS011;9426;54.118;17.948;2022-08-21T22:38:16;3.10;;;2.70;;
18592;SDS011;9426;54.118;17.948;2022-08-21T22:43:53;4.63;;;2.83;;
18592;SDS011;9426;54.118;17.948;2022-08-21T22:49:23;5.50;;;2.83;;
18592;SDS011;9426;54.118;17.948;2022-08-21T22:54:56;4.00;;;2.90;;
18592;SDS011;9426;54.118;17.948;2022-08-21T23:00:33;3.00;;;2.60;;
18592;SDS011;9426;54.118;17.948;2022-08-21T23:06:02;3.23;;;2.50;;
18592;SDS011;9426;54.118;17.948;2022-08-21T23:11:39;3.57;;;2.70;;
18592;SDS011;9426;54.118;17.948;2022-08-21T23:17:06;6.47;;;3.00;;
18592;SDS011;9426;54.118;17.948;2022-08-21T23:22:35;5.47;;;3.80;;
18592;SDS011;9426;54.118;17.948;2022-08-21T23:28:15;5.07;;;4.47;;
18592;SDS011;9426;54.118;17.948;2022-08-21T23:33:50;6.63;;;3.97;;
18592;SDS011;9426;54.118;17.948;2022-08-21T23:39:32;3.90;;;3.07;;
18592;SDS011;9426;54.118;17.948;2022-08-21T23:45:07;14.30;;;10.17;;
18592;SDS011;9426;54.118;17.948;2022-08-21T23:50:42;8.13;;;5.80;;
18592;SDS011;9426;54.118;17.948;2022-08-21T23:56:15;5.17;;;3.80;;
